• Join FlightAware (Why Join?)
  • Login
  • US Flag 
01:14AM EDT


 

Airport Tracker/Info


-or-


 

Live Flight TrackerFlight Track Log ✈ C-FXDD ✈ 30-Sep-2013 ✈ CYAV - CYAV

Flight Track Log - Related Links

Times and Time Zones

All times are in EDT time to prevent confusion due to time zone crossing. See the C-FXDD flight status page for this flight to view local times or setup timezone preferences in your user account.

Time Position Orientation Groundspeed Altitude Reporting Facility
EDT Latitude Longitude Course Direction KTS MPH feet Rate Location/Type
02:06PM 50.0167 -97.0500 63° Northeast 100 115 1,800  Level Winnipeg Center
02:07PM 50.0000 -97.0500 180° South 100 115 2,900 600 Climbing Winnipeg Center
02:08PM 50.0000 -97.1000 270° West 110 127 3,000  Climbing Winnipeg Center
02:09PM 50.0000 -97.1500 270° West 120 138 3,000  Level Winnipeg Center
02:10PM 50.0167 -97.2000 297° West 120 138 3,000  Level Winnipeg Center
02:11PM 50.0564 -97.0325 63° Northeast  Level Estimated
02:11PM 50.0167 -97.2500 270° West 110 127 3,000  Level Winnipeg Center
02:12PM 50.0167 -97.2833 270° West 110 127 3,000  Level Winnipeg Center
02:13PM 50.0167 -97.3333 270° West 100 115 3,000  Level Winnipeg Center
02:14PM 50.0000 -97.3500 213° Southwest 120 138 3,000 -120 Level Winnipeg Center
02:15PM 49.9667 -97.3333 162° South 110 127 2,800 -540 Descending Winnipeg Center
02:16PM 49.9333 -97.3000 147° Southeast 130 150 2,000 -840 Descending Winnipeg Center
02:17PM 49.9167 -97.2500 117° Southeast 130 150 1,200 -300 Descending Winnipeg Center
02:18PM 49.8833 -97.2333 162° South 130 150 1,500 600 Climbing Winnipeg Center
02:19PM 49.8833 -97.1667 90° East 130 150 2,400 840 Climbing Winnipeg Center
02:20PM 49.8833 -97.1167 90° East 130 150 3,200 840 Climbing Winnipeg Center
02:21PM 49.9167 -97.1000 18° North 110 127 4,100 480 Climbing Winnipeg Center
02:22PM 49.9333 -97.1500 297° West 130 150 4,200 -60 Climbing Winnipeg Center
02:23PM 49.9667 -97.1667 342° North 130 150 4,000 -120 Descending Winnipeg Center
02:24PM 49.9833 -97.2000 308° West 120 138 4,000  Level Winnipeg Center
02:25PM 50.0167 -97.2500 316° Northwest 120 138 4,000 -60 Level Winnipeg Center
02:26PM 50.0333 -97.2833 308° West 110 127 3,900 -480 Descending Winnipeg Center
02:27PM 50.0333 -97.3333 270° West 130 150 3,100 -420 Descending Winnipeg Center
02:28PM 50.0667 -97.3833 316° Northwest 130 150 3,100  Level Winnipeg Center
02:29PM 50.0833 -97.4167 308° West 120 138 3,100  Level Winnipeg Center
02:30PM 50.1000 -97.4667 297° West 100 115 3,100  Level Winnipeg Center
02:31PM 50.0833 -97.4833 213° Southwest 110 127 3,100  Level Winnipeg Center
02:32PM 50.0500 -97.5167 213° Southwest 110 127 3,100  Level Winnipeg Center
02:33PM 50.0333 -97.4833 128° Southeast 150 173 3,100 -60 Level Winnipeg Center
02:34PM 50.0500 -97.4333 63° Northeast 150 173 3,000 -120 Descending Winnipeg Center
02:35PM 50.0667 -97.3500 73° East 150 173 2,900  Descending Winnipeg Center
02:36PM 50.0333 -97.3500 180° South 110 127 3,000  Climbing Winnipeg Center
02:37PM 50.0000 -97.3500 180° South 110 127 3,000  Level Winnipeg Center
02:38PM 49.9667 -97.3500 180° South 110 127 3,000 -420 Level Winnipeg Center
02:39PM 49.9500 -97.3000 117° Southeast 130 150 2,200 -720 Descending Winnipeg Center
02:40PM 49.9167 -97.2833 162° South 130 150 1,600 -540 Descending Winnipeg Center
02:41PM 49.9000 -97.2333 117° Southeast 120 138 1,200 120 Descending Winnipeg Center
02:42PM 49.9000 -97.1667 90° East 150 173 1,900 300 Climbing Winnipeg Center
02:43PM 49.9333 -97.1500 18° North 150 173 1,800 -60 Descending Winnipeg Center
02:44PM 49.9667 -97.1000 44° Northeast 150 173 1,800  Level Winnipeg Center
02:45PM 50.0000 -97.0500 44° Northeast 150 173 1,800  Level Winnipeg Center
02:46PM 50.0167 -97.0167 52° Northeast 150 173 1,800 -60 Level Winnipeg Center
02:47PM 50.0500 -97.0000 18° North 100 115 1,700 -360 Descending Winnipeg Center
02:48PM 50.0500 -97.0167 270° West 70 81 1,100 -600 Descending Winnipeg Center